Time;durP1;ratioP1;P1;durP2;ratioP2;P2;SDS_P1;SDS_P2;PMS_P1;PMS_P2;Temp;Humidity;BMP_temperature;BMP_pressure;BME280_temperature;BME280_humidity;BME280_pressure;Samples;Min_cycle;Max_cycle;Signal;HPM_P1;HPM_P2
2024/04/16 00:01:45;;;;;;;1.17;1.00;;;9.70;96.20;;;;;;5438402;26;20507;-76
2024/04/16 00:04:15;;;;;;;1.80;0.90;;;9.60;92.80;;;;;;5431402;26;20597;-79
2024/04/16 00:06:42;;;;;;;1.40;0.80;;;9.60;99.90;;;;;;5427228;26;20511;-80
2024/04/16 00:09:12;;;;;;;2.00;0.90;;;9.60;85.70;;;;;;5426233;26;20564;-80
2024/04/16 00:11:42;;;;;;;1.10;1.00;;;9.50;85.10;;;;;;5432764;26;20527;-77
2024/04/16 00:14:12;;;;;;;1.80;0.90;;;9.60;89.50;;;;;;5437938;26;20605;-78
2024/04/16 00:16:39;;;;;;;1.60;0.80;;;9.80;96.20;;;;;;5436986;26;20455;-76
2024/04/16 00:19:09;;;;;;;0.90;0.90;;;10.00;99.90;;;;;;5435968;26;21139;-78
2024/04/16 00:21:37;;;;;;;1.10;1.10;;;9.90;99.90;;;;;;5434804;26;20471;-75
2024/04/16 00:24:07;;;;;;;1.07;1.00;;;9.90;92.60;;;;;;5435153;26;20544;-78
2024/04/16 00:26:34;;;;;;;4.03;1.10;;;9.90;96.10;;;;;;5429110;26;20575;-80
2024/04/16 00:29:06;;;;;;;1.57;1.00;;;9.70;92.20;;;;;;5434178;26;20501;-77
2024/04/16 00:31:34;;;;;;;1.10;1.00;;;9.40;99.90;;;;;;5433844;26;20475;-77
2024/04/16 00:34:06;;;;;;;1.27;1.00;;;9.60;99.90;;;;;;5439283;26;20472;-77
2024/04/16 00:36:33;;;;;;;1.10;1.00;;;9.40;96.00;;;;;;5435803;26;20479;-76
2024/04/16 00:39:03;;;;;;;2.53;1.07;;;9.50;98.10;;;;;;5432743;26;20528;-79
2024/04/16 00:41:30;;;;;;;1.20;1.10;;;9.60;99.90;;;;;;5435083;26;20514;-79
2024/04/16 00:44:00;;;;;;;1.43;1.00;;;9.60;99.90;;;;;;5433310;26;20466;-79
2024/04/16 00:46:30;;;;;;;1.00;1.00;;;9.40;99.90;;;;;;5428824;26;20464;-78
2024/04/16 00:49:01;;;;;;;0.90;0.90;;;9.50;99.90;;;;;;5429514;26;21055;-78
2024/04/16 00:51:28;;;;;;;0.90;0.90;;;9.30;96.50;;;;;;5431653;26;20470;-80
2024/04/16 00:53:58;;;;;;;0.90;0.90;;;9.30;99.10;;;;;;5435657;26;21361;-79
2024/04/16 00:56:26;;;;;;;0.90;0.90;;;9.50;99.90;;;;;;5433647;26;20475;-80
2024/04/16 00:58:57;;;;;;;1.10;0.90;;;9.40;99.90;;;;;;5432804;26;20539;-77
2024/04/16 01:01:24;;;;;;;1.10;1.00;;;9.50;99.90;;;;;;5432591;26;20503;-78
2024/04/16 01:03:56;;;;;;;1.30;1.00;;;9.40;99.90;;;;;;5429449;26;21105;-77
2024/04/16 01:06:25;;;;;;;2.00;0.90;;;9.20;99.90;;;;;;5431852;26;20522;-76
2024/04/16 01:08:55;;;;;;;1.37;1.10;;;9.30;99.90;;;;;;5438458;26;20540;-78
2024/04/16 01:11:23;;;;;;;1.20;1.10;;;9.20;99.90;;;;;;5451948;26;20476;-78
2024/04/16 01:13:53;;;;;;;1.30;1.13;;;9.20;99.90;;;;;;5438962;26;20508;-79
2024/04/16 01:16:20;;;;;;;1.00;1.00;;;9.30;99.90;;;;;;5430945;26;20472;-80
2024/04/16 01:18:50;;;;;;;1.20;1.10;;;9.30;99.90;;;;;;5428132;26;20468;-82
2024/04/16 01:21:20;;;;;;;1.57;1.10;;;9.10;99.90;;;;;;5437334;26;20519;-80
2024/04/16 01:23:53;;;;;;;1.17;1.07;;;9.40;99.90;;;;;;5430645;26;20872;-82
2024/04/16 01:26:20;;;;;;;5.13;1.00;;;9.30;99.90;;;;;;5430196;26;20507;-77
2024/04/16 01:28:50;;;;;;;1.30;1.20;;;9.20;99.90;;;;;;5430379;26;20470;-81
2024/04/16 01:31:17;;;;;;;1.63;1.00;;;9.20;99.90;;;;;;5438981;26;21020;-78
2024/04/16 01:33:47;;;;;;;1.20;1.10;;;9.20;99.90;;;;;;5431147;26;20828;-80
2024/04/16 01:36:15;;;;;;;3.40;1.00;;;9.10;99.90;;;;;;5433162;26;20507;-76
2024/04/16 01:38:44;;;;;;;1.20;1.10;;;9.10;99.90;;;;;;5435122;26;21110;-75
2024/04/16 01:41:16;;;;;;;1.10;1.00;;;9.00;99.90;;;;;;5435640;26;20562;-79
2024/04/16 01:43:46;;;;;;;1.10;1.10;;;9.00;99.90;;;;;;5429765;26;20491;-77
2024/04/16 01:46:14;;;;;;;1.30;1.20;;;9.10;99.90;;;;;;5428121;26;20508;-77
2024/04/16 01:48:44;;;;;;;1.80;1.10;;;9.20;99.90;;;;;;5431028;26;20530;-80
2024/04/16 01:51:11;;;;;;;1.70;1.17;;;9.20;99.90;;;;;;5441748;26;20467;-78
2024/04/16 01:53:42;;;;;;;1.10;1.10;;;9.10;99.90;;;;;;5428488;26;20616;-79
2024/04/16 01:56:09;;;;;;;1.23;1.10;;;9.10;99.90;;;;;;5426310;26;21025;-82
2024/04/16 01:58:42;;;;;;;1.30;1.17;;;9.20;99.90;;;;;;5434994;26;21025;-80
2024/04/16 02:01:09;;;;;;;1.73;1.07;;;9.30;99.90;;;;;;5439225;26;20471;-77
2024/04/16 02:03:39;;;;;;;3.80;1.10;;;9.20;99.90;;;;;;5434585;26;20550;-79
2024/04/16 02:06:07;;;;;;;1.60;1.33;;;9.00;99.90;;;;;;5418733;26;20478;-79
2024/04/16 02:08:36;;;;;;;1.17;1.17;;;9.00;99.90;;;;;;5431848;26;20515;-80
2024/04/16 02:11:04;;;;;;;1.27;1.17;;;9.10;99.90;;;;;;5437402;26;20523;-77
2024/04/16 02:13:34;;;;;;;1.23;1.17;;;9.10;99.90;;;;;;5433371;26;20580;-79
2024/04/16 02:16:05;;;;;;;1.30;1.20;;;9.00;99.90;;;;;;5431464;26;21122;-81
2024/04/16 02:18:34;;;;;;;4.50;1.20;;;8.90;99.90;;;;;;5428732;26;20527;-78
2024/04/16 02:21:02;;;;;;;4.90;1.80;;;8.90;99.90;;;;;;5439358;26;20912;-79
2024/04/16 02:23:32;;;;;;;4.20;1.00;;;8.70;99.90;;;;;;5436627;26;20487;-77
2024/04/16 02:25:59;;;;;;;1.20;1.10;;;8.80;99.90;;;;;;5432690;26;20542;-79
2024/04/16 02:28:29;;;;;;;1.30;1.20;;;8.70;99.90;;;;;;5428287;26;20523;-78
2024/04/16 02:30:56;;;;;;;1.40;1.00;;;8.70;99.90;;;;;;5437042;26;20518;-80
2024/04/16 02:33:29;;;;;;;1.57;1.00;;;8.70;99.90;;;;;;5431652;26;20532;-81
2024/04/16 02:36:00;;;;;;;1.63;1.10;;;8.90;99.90;;;;;;5432850;26;20458;-80
2024/04/16 02:38:30;;;;;;;1.20;1.10;;;8.80;99.90;;;;;;5435412;26;20585;-76
2024/04/16 02:40:57;;;;;;;1.07;0.90;;;8.70;99.90;;;;;;5435331;26;20473;-80
2024/04/16 02:43:27;;;;;;;1.60;1.03;;;8.70;99.90;;;;;;5434110;26;20481;-81
2024/04/16 02:45:55;;;;;;;2.70;1.30;;;8.50;99.90;;;;;;5434726;26;20472;-81
2024/04/16 02:48:24;;;;;;;1.00;1.00;;;8.40;99.90;;;;;;5434170;26;20493;-79
2024/04/16 02:50:54;;;;;;;1.13;1.03;;;8.50;99.90;;;;;;5435476;26;20571;-80
2024/04/16 02:53:24;;;;;;;2.90;1.30;;;8.50;99.90;;;;;;5431637;26;20482;-80
2024/04/16 02:55:54;;;;;;;1.13;1.10;;;8.70;99.90;;;;;;5438434;26;20476;-78
2024/04/16 02:58:22;;;;;;;1.10;1.03;;;8.70;99.90;;;;;;5433446;26;20549;-80
2024/04/16 03:00:51;;;;;;;1.60;1.10;;;8.80;99.90;;;;;;5439489;26;20470;-77
2024/04/16 03:03:19;;;;;;;2.40;1.40;;;8.70;99.90;;;;;;5429313;26;20469;-77
2024/04/16 03:05:49;;;;;;;3.33;2.20;;;8.70;99.90;;;;;;5427268;26;20482;-79
2024/04/16 03:08:18;;;;;;;1.80;1.20;;;8.70;99.90;;;;;;5435672;26;20538;-80
2024/04/16 03:10:48;;;;;;;1.77;1.47;;;8.60;99.90;;;;;;5433767;26;20559;-80
2024/04/16 03:13:16;;;;;;;1.47;1.10;;;8.70;99.90;;;;;;5435934;26;20539;-78
2024/04/16 03:15:46;;;;;;;2.20;1.10;;;8.60;99.90;;;;;;5438885;26;20462;-79
2024/04/16 03:18:13;;;;;;;3.37;1.00;;;8.70;99.90;;;;;;5435067;26;20502;-77
2024/04/16 03:20:43;;;;;;;1.57;1.10;;;8.70;99.90;;;;;;5433106;26;20466;-78
2024/04/16 03:23:10;;;;;;;1.13;0.90;;;8.60;99.90;;;;;;5425873;26;20542;-78
2024/04/16 03:25:45;;;;;;;1.30;1.10;;;8.60;99.90;;;;;;5432363;26;20466;-80
2024/04/16 03:28:13;;;;;;;1.10;1.10;;;8.60;99.90;;;;;;5435744;26;20875;-79
2024/04/16 03:30:43;;;;;;;2.00;1.57;;;8.60;99.90;;;;;;5439188;26;21137;-80
2024/04/16 03:33:10;;;;;;;1.20;1.10;;;8.60;99.90;;;;;;5437104;26;21119;-76
2024/04/16 03:35:40;;;;;;;1.57;1.23;;;8.50;99.90;;;;;;5438416;26;20519;-79
2024/04/16 03:38:10;;;;;;;1.67;1.20;;;8.40;99.90;;;;;;5431411;26;20600;-78
2024/04/16 03:40:40;;;;;;;1.77;1.37;;;8.60;99.90;;;;;;5431370;26;21373;-76
2024/04/16 03:43:12;;;;;;;1.63;1.30;;;8.70;99.90;;;;;;5427285;26;20543;-79
2024/04/16 03:45:39;;;;;;;1.27;1.00;;;8.70;99.90;;;;;;5432059;26;20508;-78
2024/04/16 03:48:09;;;;;;;1.73;1.00;;;8.50;99.90;;;;;;5431129;26;20533;-77
2024/04/16 03:50:37;;;;;;;1.73;1.60;;;8.40;99.90;;;;;;5437995;26;20488;-79
2024/04/16 03:53:07;;;;;;;1.80;1.70;;;8.50;99.90;;;;;;5432094;26;20458;-78
2024/04/16 03:55:38;;;;;;;1.20;1.10;;;8.60;99.90;;;;;;5433864;26;20485;-78
2024/04/16 03:58:06;;;;;;;2.40;1.30;;;8.60;99.90;;;;;;5426579;26;20467;-80
2024/04/16 04:03:26;;;;;;;1.13;1.07;;;8.70;99.90;;;;;;5424482;26;20578;-78
2024/04/16 04:05:57;;;;;;;2.20;1.37;;;8.50;99.90;;;;;;5429640;26;20520;-78
2024/04/16 04:08:25;;;;;;;1.00;1.00;;;8.50;99.90;;;;;;5432955;26;20472;-77
2024/04/16 04:10:55;;;;;;;1.20;1.10;;;8.60;99.90;;;;;;5439695;26;20506;-80
2024/04/16 04:13:23;;;;;;;4.63;1.20;;;8.60;99.90;;;;;;5432441;26;21377;-76
2024/04/16 04:15:56;;;;;;;1.53;1.30;;;8.50;99.90;;;;;;5431524;26;20466;-78
2024/04/16 04:18:23;;;;;;;1.30;1.20;;;8.50;99.90;;;;;;5430124;26;20505;-78
2024/04/16 04:20:53;;;;;;;1.00;1.00;;;8.50;99.90;;;;;;5433465;26;20471;-77
2024/04/16 04:23:20;;;;;;;1.03;1.03;;;8.40;99.90;;;;;;5434864;26;20673;-76
2024/04/16 04:25:50;;;;;;;2.50;1.10;;;8.50;99.90;;;;;;5440744;26;20531;-77
2024/04/16 04:28:18;;;;;;;2.40;1.10;;;8.50;99.90;;;;;;5431553;26;20482;-78
2024/04/16 04:30:50;;;;;;;2.60;1.07;;;8.30;99.90;;;;;;5437654;26;21036;-79
2024/04/16 04:33:20;;;;;;;1.47;1.20;;;8.30;99.90;;;;;;5430371;26;20463;-78
2024/04/16 04:35:50;;;;;;;0.90;0.90;;;8.20;99.90;;;;;;5438961;26;20483;-79
2024/04/16 04:38:17;;;;;;;1.10;1.10;;;8.30;99.90;;;;;;5436070;26;21665;-79
2024/04/16 04:40:47;;;;;;;1.10;1.10;;;8.30;99.90;;;;;;5430231;26;20468;-78
2024/04/16 04:43:14;;;;;;;1.10;1.10;;;8.30;99.90;;;;;;5434058;26;21095;-78
2024/04/16 04:45:44;;;;;;;1.40;1.00;;;8.30;99.90;;;;;;5434521;26;20476;-78
2024/04/16 04:48:12;;;;;;;1.30;1.20;;;8.20;99.90;;;;;;5431240;26;20520;-80
2024/04/16 04:50:44;;;;;;;1.33;1.10;;;8.20;99.90;;;;;;5428742;26;20474;-77
2024/04/16 04:53:11;;;;;;;1.50;1.27;;;8.20;99.90;;;;;;5436601;26;20459;-75
2024/04/16 04:55:41;;;;;;;2.77;1.03;;;8.20;99.90;;;;;;5436069;26;20474;-77
2024/04/16 04:58:09;;;;;;;1.20;1.10;;;8.10;99.90;;;;;;5425673;26;20515;-78
2024/04/16 05:00:39;;;;;;;1.37;1.00;;;8.20;99.90;;;;;;5430164;26;20474;-76
2024/04/16 05:03:06;;;;;;;1.00;1.00;;;8.10;99.90;;;;;;5434012;26;20522;-77
2024/04/16 05:05:36;;;;;;;1.00;1.00;;;8.20;99.90;;;;;;5424606;26;20474;-75
2024/04/16 05:08:06;;;;;;;1.30;1.20;;;8.10;99.90;;;;;;5429508;26;20468;-76
2024/04/16 05:10:36;;;;;;;2.00;1.10;;;8.00;99.90;;;;;;5435595;26;21083;-77
2024/04/16 05:13:04;;;;;;;1.50;1.20;;;8.00;99.90;;;;;;5428265;26;20528;-75
2024/04/16 05:15:34;;;;;;;2.50;1.63;;;8.10;99.90;;;;;;5430345;26;20470;-76
2024/04/16 05:18:02;;;;;;;2.37;1.13;;;8.20;99.90;;;;;;5429324;26;20473;-78
2024/04/16 05:20:34;;;;;;;1.40;1.10;;;8.20;99.90;;;;;;5424122;26;20451;-77
2024/04/16 05:23:01;;;;;;;3.30;1.20;;;8.30;99.90;;;;;;5431215;26;20479;-75
2024/04/16 05:25:34;;;;;;;2.50;1.40;;;8.30;99.90;;;;;;5433462;26;20455;-76
2024/04/16 05:28:01;;;;;;;1.57;1.30;;;8.30;99.90;;;;;;5432155;26;20462;-79
2024/04/16 05:30:31;;;;;;;1.47;1.37;;;8.30;99.90;;;;;;5426123;26;20477;-79
2024/04/16 05:32:59;;;;;;;1.73;1.43;;;8.30;99.90;;;;;;5429275;26;20516;-76
2024/04/16 05:35:29;;;;;;;1.33;1.23;;;8.30;99.90;;;;;;5431763;26;20470;-77
2024/04/16 05:37:56;;;;;;;3.40;1.50;;;8.40;99.90;;;;;;5429254;26;20547;-77
2024/04/16 05:40:26;;;;;;;2.60;1.40;;;8.40;99.90;;;;;;5427788;26;20899;-76
2024/04/16 05:42:56;;;;;;;1.90;1.37;;;8.40;99.90;;;;;;5428514;26;20511;-76
2024/04/16 05:45:25;;;;;;;1.67;1.20;;;8.40;99.90;;;;;;5433358;26;21293;-78
2024/04/16 05:47:53;;;;;;;3.47;1.30;;;8.50;99.90;;;;;;5426623;26;20464;-79
2024/04/16 05:50:23;;;;;;;2.13;1.37;;;8.40;99.90;;;;;;5428747;26;20523;-76
2024/04/16 05:52:50;;;;;;;3.90;1.40;;;8.50;99.90;;;;;;5434360;26;20463;-78
2024/04/16 05:55:20;;;;;;;1.70;1.20;;;8.60;99.90;;;;;;5428883;26;20803;-80
2024/04/16 05:57:47;;;;;;;4.67;1.43;;;8.50;99.90;;;;;;5431845;26;20523;-76
2024/04/16 06:00:21;;;;;;;1.50;1.20;;;8.70;99.90;;;;;;5429484;26;21190;-77
2024/04/16 06:02:48;;;;;;;4.40;1.57;;;8.80;99.90;;;;;;5426137;26;21032;-77
2024/04/16 06:05:18;;;;;;;2.97;1.57;;;8.70;98.80;;;;;;5429534;26;20480;-75
2024/04/16 06:07:46;;;;;;;2.53;1.67;;;8.90;99.90;;;;;;5431635;26;20470;-77
2024/04/16 06:10:16;;;;;;;4.10;2.00;;;8.80;98.40;;;;;;5429233;26;20497;-76
2024/04/16 06:12:43;;;;;;;3.10;1.50;;;8.90;98.80;;;;;;5429292;26;20524;-76
2024/04/16 06:15:13;;;;;;;6.00;2.80;;;8.80;95.70;;;;;;5427050;26;21017;-77
2024/04/16 06:17:43;;;;;;;3.30;1.57;;;8.90;96.90;;;;;;5421412;26;20541;-77
2024/04/16 06:20:13;;;;;;;5.93;1.80;;;9.00;94.60;;;;;;5431696;26;21287;-75
2024/04/16 06:22:40;;;;;;;2.93;1.90;;;9.10;95.70;;;;;;5430321;26;20468;-77
2024/04/16 06:25:10;;;;;;;5.30;1.83;;;9.10;91.20;;;;;;5436817;26;21001;-78
2024/04/16 06:27:38;;;;;;;2.77;1.70;;;9.20;93.20;;;;;;5429136;26;20497;-76
2024/04/16 06:30:09;;;;;;;4.90;1.80;;;9.40;90.40;;;;;;5431033;26;20542;-76
2024/04/16 06:32:36;;;;;;;2.70;1.40;;;9.50;91.80;;;;;;5428430;26;20478;-77
2024/04/16 06:35:09;;;;;;;3.40;1.70;;;9.80;91.40;;;;;;5437162;26;20463;-74
2024/04/16 06:37:36;;;;;;;2.30;1.43;;;10.10;91.00;;;;;;5438926;26;20465;-73
2024/04/16 06:40:08;;;;;;;4.40;1.60;;;10.30;87.80;;;;;;5435259;26;20877;-77
2024/04/16 06:42:36;;;;;;;1.87;1.50;;;10.40;86.30;;;;;;5428193;26;20456;-74
2024/04/16 06:45:07;;;;;;;3.80;1.80;;;10.40;80.30;;;;;;5427697;26;21076;-73
2024/04/16 06:47:34;;;;;;;10.83;1.80;;;10.40;75.30;;;;;;5432372;26;20934;-77
2024/04/16 06:50:05;;;;;;;4.10;2.07;;;10.30;74.70;;;;;;5428860;26;20480;-75
2024/04/16 06:52:35;;;;;;;5.10;1.50;;;10.40;77.80;;;;;;5437363;26;20536;-78
2024/04/16 06:55:06;;;;;;;2.83;2.30;;;10.40;79.20;;;;;;5431501;26;20548;-76
2024/04/16 06:57:33;;;;;;;4.30;2.40;;;10.50;78.60;;;;;;5431894;26;20453;-78
2024/04/16 07:00:04;;;;;;;5.37;1.77;;;10.70;78.50;;;;;;5430219;26;20472;-76
2024/04/16 07:02:31;;;;;;;5.50;1.70;;;10.90;77.90;;;;;;5427097;26;20452;-77
2024/04/16 07:05:02;;;;;;;3.30;1.70;;;10.80;72.50;;;;;;5431793;26;21162;-76
2024/04/16 07:07:29;;;;;;;2.40;1.53;;;10.80;68.90;;;;;;5462631;26;20903;-76
2024/04/16 07:10:02;;;;;;;3.10;1.50;;;11.00;72.70;;;;;;5435700;26;20478;-79
2024/04/16 07:12:29;;;;;;;2.53;1.73;;;11.20;75.20;;;;;;5428596;26;20483;-76
2024/04/16 07:14:59;;;;;;;1.50;1.40;;;11.50;74.00;;;;;;5431915;26;20533;-76
2024/04/16 07:17:28;;;;;;;3.70;1.40;;;11.50;68.10;;;;;;5451355;26;20827;-76
2024/04/16 07:19:58;;;;;;;3.13;1.70;;;11.40;62.00;;;;;;5425884;26;20474;-77
2024/04/16 07:22:25;;;;;;;2.33;1.33;;;11.50;58.80;;;;;;5435986;26;20464;-78
2024/04/16 07:24:56;;;;;;;3.67;1.30;;;11.60;55.90;;;;;;5435020;26;20548;-77
2024/04/16 07:27:26;;;;;;;2.60;1.47;;;11.60;57.30;;;;;;5430476;26;20556;-75
2024/04/16 07:29:56;;;;;;;4.67;1.50;;;11.60;52.90;;;;;;5427759;26;20523;-76
2024/04/16 07:32:26;;;;;;;1.47;1.20;;;11.50;50.10;;;;;;5427517;26;21082;-77
2024/04/16 07:34:53;;;;;;;5.27;1.73;;;11.40;46.20;;;;;;5432683;26;21595;-75
2024/04/16 07:37:26;;;;;;;2.90;1.60;;;11.30;56.90;;;;;;5435663;26;20891;-73
2024/04/16 07:39:54;;;;;;;3.27;1.30;;;11.10;41.30;;;;;;5433288;26;20514;-77
2024/04/16 07:42:24;;;;;;;4.07;1.27;;;11.20;42.10;;;;;;5431604;26;20479;-76
2024/04/16 07:44:54;;;;;;;2.97;1.50;;;11.30;43.30;;;;;;5429386;26;20467;-75
2024/04/16 07:47:24;;;;;;;2.80;1.30;;;11.30;40.80;;;;;;5422671;26;20465;-74
2024/04/16 07:49:52;;;;;;;3.00;1.30;;;11.10;34.40;;;;;;5432470;26;20467;-77
2024/04/16 07:52:22;;;;;;;1.80;1.70;;;11.20;33.40;;;;;;5432447;26;20461;-78
2024/04/16 07:54:49;;;;;;;4.43;1.20;;;11.10;34.10;;;;;;5432755;26;20528;-78
2024/04/16 07:57:19;;;;;;;3.23;1.23;;;11.20;36.20;;;;;;5431612;26;20534;-78
2024/04/16 07:59:46;;;;;;;1.63;1.53;;;11.20;34.10;;;;;;5430809;26;20480;-79
2024/04/16 08:02:19;;;;;;;1.73;1.40;;;11.00;32.70;;;;;;5427359;26;20541;-76
2024/04/16 08:04:46;;;;;;;6.27;1.10;;;10.90;30.00;;;;;;5430307;26;20481;-78
2024/04/16 08:07:16;;;;;;;1.80;1.00;;;10.90;30.80;;;;;;5429390;26;20512;-79
2024/04/16 08:09:46;;;;;;;4.47;1.23;;;11.00;29.30;;;;;;5433843;26;20536;-78
2024/04/16 08:12:16;;;;;;;2.30;1.20;;;11.00;28.40;;;;;;5427826;26;20559;-77
2024/04/16 08:14:43;;;;;;;3.13;1.47;;;11.10;30.70;;;;;;5428732;26;20540;-77
2024/04/16 08:17:13;;;;;;;2.23;1.30;;;11.10;29.50;;;;;;5428665;26;20555;-76
2024/04/16 08:19:43;;;;;;;2.53;1.13;;;11.20;32.50;;;;;;5426717;26;20486;-79
2024/04/16 08:22:13;;;;;;;2.20;1.10;;;11.20;28.90;;;;;;5432659;26;21371;-77
2024/04/16 08:24:41;;;;;;;2.10;1.13;;;11.30;34.20;;;;;;5429428;26;20459;-76
2024/04/16 08:27:11;;;;;;;2.20;1.40;;;11.20;28.20;;;;;;5432681;26;20531;-79
2024/04/16 08:29:38;;;;;;;2.33;1.60;;;11.10;40.20;;;;;;5432080;26;20471;-79
2024/04/16 08:32:09;;;;;;;3.23;1.10;;;11.10;26.60;;;;;;5427282;26;21334;-78
2024/04/16 08:34:38;;;;;;;2.70;1.10;;;11.30;29.10;;;;;;5425941;26;20537;-78
2024/04/16 08:37:11;;;;;;;2.20;1.10;;;11.20;27.60;;;;;;5437220;26;20565;-75
2024/04/16 08:39:39;;;;;;;3.87;1.50;;;11.20;26.00;;;;;;5431129;26;20461;-77
2024/04/16 08:42:10;;;;;;;2.97;1.10;;;11.30;29.00;;;;;;5436234;26;20485;-77
2024/04/16 08:44:40;;;;;;;4.53;1.27;;;11.40;29.80;;;;;;5428990;26;20518;-78
2024/04/16 08:47:11;;;;;;;2.00;1.70;;;11.60;30.40;;;;;;5428708;26;20594;-77
2024/04/16 08:49:40;;;;;;;1.47;1.00;;;11.60;32.70;;;;;;5432727;26;20554;-76
2024/04/16 08:52:15;;;;;;;1.50;1.10;;;11.50;30.00;;;;;;5432043;26;20510;-77
2024/04/16 08:54:45;;;;;;;2.40;1.20;;;11.40;28.50;;;;;;5435243;26;20692;-77
2024/04/16 08:57:15;;;;;;;3.80;1.20;;;11.50;29.70;;;;;;5428818;26;20458;-77
2024/04/16 08:59:42;;;;;;;4.50;1.40;;;11.70;31.30;;;;;;5429619;26;20549;-77
2024/04/16 09:02:13;;;;;;;2.27;0.97;;;11.70;30.90;;;;;;5428320;26;20899;-78
2024/04/16 09:04:41;;;;;;;1.30;1.10;;;11.70;30.20;;;;;;5453568;26;20524;-77
2024/04/16 09:07:16;;;;;;;4.90;1.10;;;11.80;31.30;;;;;;5428268;26;20588;-76
2024/04/16 09:09:43;;;;;;;1.40;1.13;;;11.90;30.00;;;;;;5430083;26;20471;-76
2024/04/16 09:12:13;;;;;;;1.60;1.07;;;12.00;29.60;;;;;;5431994;26;20970;-75
2024/04/16 09:14:40;;;;;;;1.97;1.20;;;12.10;31.00;;;;;;5436210;26;20538;-76
2024/04/16 09:17:16;;;;;;;3.20;1.43;;;12.00;29.70;;;;;;5432060;26;20558;-79
2024/04/16 09:19:43;;;;;;;2.17;1.40;;;11.80;28.50;;;;;;5431758;26;20548;-77
2024/04/16 09:22:17;;;;;;;4.10;1.30;;;11.70;26.40;;;;;;5434858;26;20473;-74
2024/04/16 09:24:45;;;;;;;1.70;1.10;;;11.70;25.40;;;;;;5434726;26;20467;-76
2024/04/16 09:27:15;;;;;;;1.53;1.23;;;11.60;24.70;;;;;;5433808;26;20546;-74
2024/04/16 09:29:44;;;;;;;0.90;0.90;;;11.50;25.00;;;;;;5427490;26;20513;-76
2024/04/16 09:32:14;;;;;;;1.17;1.07;;;11.40;23.30;;;;;;5432828;26;20453;-75
2024/04/16 09:34:42;;;;;;;2.93;1.10;;;11.30;23.30;;;;;;5426818;26;20840;-75
2024/04/16 09:37:12;;;;;;;1.10;1.00;;;11.10;21.00;;;;;;5435191;26;20463;-77
2024/04/16 09:39:42;;;;;;;2.13;1.13;;;11.10;21.80;;;;;;5432421;26;20455;-76
2024/04/16 09:42:12;;;;;;;6.10;1.53;;;11.30;23.90;;;;;;5442695;26;20497;-77
2024/04/16 09:44:40;;;;;;;2.20;1.20;;;11.40;25.90;;;;;;5432729;26;20561;-76
2024/04/16 09:47:11;;;;;;;1.87;1.10;;;11.60;28.10;;;;;;5428004;26;20559;-76
2024/04/16 09:49:38;;;;;;;2.00;1.30;;;11.60;27.20;;;;;;5426231;26;20566;-76
2024/04/16 09:52:24;;;;;;;1.93;1.10;;;11.70;27.80;;;;;;5431775;26;20516;-77
2024/04/16 09:54:57;;;;;;;1.97;1.13;;;11.70;31.60;;;;;;5430401;26;20492;-75
2024/04/16 09:57:30;;;;;;;2.30;1.00;;;11.60;27.30;;;;;;5433473;26;20473;-75
2024/04/16 09:59:59;;;;;;;2.60;1.10;;;11.50;28.00;;;;;;5428371;26;20514;-76
2024/04/16 10:02:29;;;;;;;1.73;1.00;;;11.30;26.20;;;;;;5427507;26;20526;-77
2024/04/16 10:05:01;;;;;;;1.63;1.10;;;11.40;28.60;;;;;;5438896;26;20952;-77
2024/04/16 10:07:31;;;;;;;2.40;1.00;;;11.50;34.10;;;;;;5432506;26;20488;-73
2024/04/16 10:10:01;;;;;;;1.23;1.00;;;11.60;32.90;;;;;;5434017;26;20931;-77
2024/04/16 10:12:31;;;;;;;2.97;1.10;;;11.60;33.80;;;;;;5431958;26;20474;-76
2024/04/16 10:15:00;;;;;;;2.00;1.10;;;11.70;39.70;;;;;;5426223;26;20477;-76
2024/04/16 10:17:30;;;;;;;1.93;0.90;;;11.70;32.60;;;;;;5432270;26;20470;-76
2024/04/16 10:20:08;;;;;;;2.13;1.00;;;11.60;37.60;;;;;;5422655;26;20592;-77
2024/04/16 10:22:38;;;;;;;1.43;0.97;;;11.50;33.00;;;;;;5425068;26;20516;-77
2024/04/16 10:25:26;;;;;;;2.10;0.90;;;11.30;29.10;;;;;;5428746;26;20500;-78
2024/04/16 10:27:56;;;;;;;1.87;1.33;;;11.30;29.60;;;;;;5430861;26;20618;-77
2024/04/16 10:30:28;;;;;;;2.40;1.00;;;11.30;31.30;;;;;;5430894;26;20464;-77
2024/04/16 10:32:59;;;;;;;1.00;1.00;;;11.30;30.10;;;;;;5428144;26;20470;-76
2024/04/16 10:35:28;;;;;;;1.40;1.20;;;11.30;31.90;;;;;;5426745;26;20557;-76
2024/04/16 10:37:59;;;;;;;1.00;1.00;;;11.40;35.60;;;;;;5429717;26;20579;-74
2024/04/16 10:40:31;;;;;;;1.83;0.97;;;11.40;35.00;;;;;;5425439;26;20483;-77
2024/04/16 10:43:02;;;;;;;3.47;1.10;;;11.30;31.30;;;;;;5433712;26;21603;-75
2024/04/16 10:45:30;;;;;;;1.20;1.10;;;11.50;35.70;;;;;;5427577;26;20535;-76
2024/04/16 10:48:00;;;;;;;2.40;1.17;;;11.50;36.30;;;;;;5429422;26;20526;-75
2024/04/16 10:50:28;;;;;;;1.47;1.07;;;11.50;36.80;;;;;;5427307;26;20459;-75
2024/04/16 10:52:58;;;;;;;3.43;1.10;;;11.60;35.00;;;;;;5428149;26;20542;-76
2024/04/16 10:55:25;;;;;;;1.70;1.00;;;11.60;37.10;;;;;;5427482;26;20463;-75
2024/04/16 10:57:58;;;;;;;6.03;1.37;;;11.50;35.60;;;;;;5426826;26;21047;-76
2024/04/16 11:00:26;;;;;;;1.30;1.20;;;11.60;36.20;;;;;;5425354;26;20463;-76
2024/04/16 11:02:56;;;;;;;1.13;1.00;;;11.70;37.20;;;;;;5425848;26;20611;-74
2024/04/16 11:05:24;;;;;;;0.90;0.90;;;11.80;51.70;;;;;;5427325;26;20550;-76
2024/04/16 11:07:54;;;;;;;1.27;1.00;;;11.80;37.30;;;;;;5430098;26;21367;-75
2024/04/16 11:10:22;;;;;;;1.30;1.00;;;11.80;36.10;;;;;;5428115;26;20473;-76
2024/04/16 11:12:52;;;;;;;1.33;1.00;;;11.80;38.00;;;;;;5442427;26;20819;-77
2024/04/16 11:15:23;;;;;;;1.00;0.90;;;11.80;38.20;;;;;;5431415;26;20483;-75
2024/04/16 11:17:53;;;;;;;1.10;1.00;;;11.70;40.20;;;;;;5431305;26;20813;-80
2024/04/16 11:20:22;;;;;;;1.10;1.00;;;11.50;34.70;;;;;;5426781;26;20506;-79
2024/04/16 11:22:53;;;;;;;3.43;1.13;;;11.50;38.30;;;;;;5434170;26;20527;-79
2024/04/16 11:25:20;;;;;;;1.47;0.80;;;11.40;37.70;;;;;;5426189;26;20461;-76
2024/04/16 11:27:51;;;;;;;9.50;1.30;;;11.50;45.90;;;;;;5430723;26;20468;-78
2024/04/16 11:30:18;;;;;;;1.20;1.10;;;11.50;41.00;;;;;;5426819;26;20492;-78
2024/04/16 11:32:51;;;;;;;0.80;0.80;;;11.50;41.80;;;;;;5430170;26;21003;-75
2024/04/16 11:35:20;;;;;;;2.20;1.10;;;11.50;42.80;;;;;;5429518;26;20475;-74
2024/04/16 11:37:50;;;;;;;0.90;0.90;;;11.60;46.60;;;;;;5427739;26;21033;-77
2024/04/16 11:40:18;;;;;;;1.60;1.20;;;11.50;43.50;;;;;;5429993;26;20477;-77
2024/04/16 11:42:48;;;;;;;1.07;1.07;;;11.60;46.70;;;;;;5430803;26;20459;-74
2024/04/16 11:45:18;;;;;;;1.40;1.00;;;11.70;46.90;;;;;;5425459;26;20516;-76
2024/04/16 11:47:50;;;;;;;1.20;1.10;;;11.60;43.30;;;;;;5431907;26;20519;-77
2024/04/16 11:50:19;;;;;;;1.60;1.10;;;11.70;43.80;;;;;;5429203;26;20569;-78
2024/04/16 11:52:49;;;;;;;1.80;1.03;;;11.80;43.50;;;;;;5432462;26;20527;-78
2024/04/16 11:55:16;;;;;;;1.20;1.10;;;11.70;38.90;;;;;;5430719;26;20464;-78
2024/04/16 11:57:46;;;;;;;4.60;1.47;;;11.70;40.20;;;;;;5434451;26;20595;-80
2024/04/16 12:00:13;;;;;;;1.07;1.00;;;11.80;41.70;;;;;;5432458;26;20491;-76
2024/04/16 12:02:43;;;;;;;0.90;0.90;;;11.90;40.30;;;;;;5430004;26;20483;-77
2024/04/16 12:05:13;;;;;;;1.10;0.90;;;12.00;42.80;;;;;;5428946;26;20565;-77
2024/04/16 12:07:43;;;;;;;1.33;0.93;;;11.90;39.10;;;;;;5429696;26;20560;-76
2024/04/16 12:10:10;;;;;;;2.10;0.90;;;11.80;36.00;;;;;;5430057;26;20464;-77
2024/04/16 12:12:40;;;;;;;1.17;0.90;;;11.80;33.50;;;;;;5440171;26;20531;-76
2024/04/16 12:15:08;;;;;;;0.90;0.90;;;11.80;31.90;;;;;;5433705;26;20465;-76
2024/04/16 12:17:37;;;;;;;1.77;1.00;;;11.80;32.90;;;;;;5433931;26;20457;-76
2024/04/16 12:20:06;;;;;;;1.10;1.00;;;11.80;32.40;;;;;;5420837;26;20467;-77
2024/04/16 12:22:42;;;;;;;1.13;0.97;;;11.70;34.70;;;;;;5429571;26;20501;-77
2024/04/16 12:25:10;;;;;;;1.37;1.00;;;11.80;33.80;;;;;;5427195;26;20531;-76
2024/04/16 12:27:40;;;;;;;1.90;1.20;;;11.70;33.50;;;;;;5433097;26;20537;-77
2024/04/16 12:30:08;;;;;;;1.00;0.90;;;11.90;39.30;;;;;;5428988;26;21167;-75
2024/04/16 12:32:38;;;;;;;0.90;0.90;;;11.80;35.20;;;;;;5439809;26;20520;-77
2024/04/16 12:35:08;;;;;;;1.10;0.90;;;11.90;36.40;;;;;;5430232;26;20466;-76
2024/04/16 12:37:44;;;;;;;1.10;1.10;;;11.90;35.90;;;;;;5425473;26;20459;-77
2024/04/16 12:40:14;;;;;;;1.00;1.00;;;12.10;38.00;;;;;;5428709;26;20474;-76
2024/04/16 12:42:45;;;;;;;3.23;1.10;;;12.20;40.70;;;;;;5431536;26;20528;-75
2024/04/16 12:45:12;;;;;;;0.97;0.97;;;12.20;35.20;;;;;;5423793;26;21102;-78
2024/04/16 12:47:42;;;;;;;1.10;1.00;;;12.30;37.70;;;;;;5433388;26;20519;-75
2024/04/16 12:50:09;;;;;;;1.40;1.10;;;12.40;38.70;;;;;;5430033;26;20479;-73
2024/04/16 12:52:40;;;;;;;1.07;0.93;;;12.50;40.20;;;;;;5431226;26;21102;-76
2024/04/16 12:55:11;;;;;;;1.00;1.00;;;12.60;39.80;;;;;;5427076;26;20467;-76
2024/04/16 12:57:41;;;;;;;1.83;1.00;;;12.60;41.60;;;;;;5428394;26;20472;-77
2024/04/16 13:00:09;;;;;;;0.90;0.90;;;12.60;40.10;;;;;;5430401;26;20480;-78
2024/04/16 13:02:38;;;;;;;0.93;0.93;;;12.60;31.10;;;;;;5429098;26;20473;-78
2024/04/16 13:05:06;;;;;;;0.90;0.90;;;12.60;32.20;;;;;;5426044;26;20481;-74
2024/04/16 13:07:36;;;;;;;2.10;0.90;;;12.60;32.50;;;;;;5434321;26;20841;-76